createdAt,value
2023-04-20T00:00:15.666Z,5.24
2023-04-20T00:01:15.656Z,5.24
2023-04-20T00:02:15.762Z,5.22
2023-04-20T00:03:15.923Z,5.24
2023-04-20T00:04:15.682Z,5.24
2023-04-20T00:05:15.661Z,5.22
2023-04-20T00:06:15.595Z,5.24
2023-04-20T00:07:15.579Z,5.27
2023-04-20T00:08:15.561Z,5.25
2023-04-20T00:09:15.797Z,5.25
2023-04-20T00:10:15.541Z,5.24
2023-04-20T00:11:15.518Z,5.24
2023-04-20T00:12:15.523Z,5.25
2023-04-20T00:13:15.506Z,5.27
2023-04-20T00:14:15.481Z,5.27
2023-04-20T00:15:15.465Z,5.28
2023-04-20T00:16:15.489Z,5.30
2023-04-20T00:17:15.467Z,5.27
2023-04-20T00:18:15.437Z,5.30
2023-04-20T00:19:15.530Z,5.30
2023-04-20T00:20:15.419Z,5.31
2023-04-20T00:21:15.392Z,5.33
2023-04-20T00:22:15.383Z,5.31
2023-04-20T00:23:15.376Z,5.33
2023-04-20T00:24:15.372Z,5.33
2023-04-20T00:25:15.349Z,5.36
2023-04-20T00:26:15.338Z,5.38
2023-04-20T00:27:15.313Z,5.38
2023-04-20T00:28:15.319Z,5.38
2023-04-20T00:29:15.566Z,5.39
2023-04-20T00:30:15.296Z,5.40
2023-04-20T00:31:15.300Z,5.42
2023-04-20T00:32:15.249Z,5.42
2023-04-20T00:33:15.249Z,5.43
2023-04-20T00:34:15.231Z,5.43
2023-04-20T00:35:15.216Z,5.43
2023-04-20T00:36:15.199Z,5.43
2023-04-20T00:37:15.177Z,5.43
2023-04-20T00:38:15.189Z,5.45
2023-04-20T00:39:15.294Z,5.43
2023-04-20T00:40:15.147Z,5.46
2023-04-20T00:41:15.132Z,5.45
2023-04-20T00:42:15.112Z,5.45
2023-04-20T00:43:15.120Z,5.46
2023-04-20T00:44:15.095Z,5.46
2023-04-20T00:45:15.076Z,5.48
2023-04-20T00:46:15.117Z,5.49
2023-04-20T00:47:15.054Z,5.51
2023-04-20T00:48:15.049Z,5.48
2023-04-20T00:49:15.295Z,5.51
2023-04-20T00:50:15.016Z,5.51
2023-04-20T00:51:14.994Z,5.53
2023-04-20T00:52:14.999Z,5.54
2023-04-20T00:53:14.995Z,5.54
2023-04-20T00:54:14.966Z,5.54
2023-04-20T00:55:14.952Z,5.56
2023-04-20T00:56:14.946Z,5.57
2023-04-20T00:57:14.926Z,5.60
2023-04-20T00:58:14.922Z,5.57
2023-04-20T00:59:15.000Z,5.57
2023-04-20T01:00:14.932Z,5.57
2023-04-20T01:01:14.875Z,5.56
2023-04-20T01:02:14.907Z,5.60
2023-04-20T01:03:15.026Z,5.58
2023-04-20T01:04:15.025Z,5.58
2023-04-20T01:05:14.824Z,5.60
2023-04-20T01:06:14.804Z,5.60
2023-04-20T01:07:14.881Z,5.61
2023-04-20T01:08:14.791Z,5.60
2023-04-20T01:09:14.832Z,5.61
2023-04-20T01:10:14.760Z,5.63
2023-04-20T01:11:14.749Z,5.64
2023-04-20T01:12:14.734Z,5.64
2023-04-20T01:13:14.731Z,5.64
2023-04-20T01:14:14.717Z,5.63
2023-04-20T01:15:14.700Z,5.65
2023-04-20T01:16:14.761Z,5.67
2023-04-20T01:17:14.669Z,5.67
2023-04-20T01:18:14.671Z,5.67
2023-04-20T01:19:14.670Z,5.67
2023-04-20T01:20:14.699Z,5.67
2023-04-20T01:21:14.614Z,5.68
2023-04-20T01:22:14.632Z,5.71
2023-04-20T01:23:14.606Z,5.71
2023-04-20T01:24:14.594Z,5.67
2023-04-20T01:25:14.572Z,5.68
2023-04-20T01:26:14.551Z,5.71
2023-04-20T01:27:14.545Z,5.72
2023-04-20T01:28:14.593Z,5.72
2023-04-20T01:29:14.666Z,5.72
2023-04-20T01:30:14.508Z,5.75
2023-04-20T01:31:14.540Z,5.74
2023-04-20T01:32:14.480Z,5.75
2023-04-20T01:33:14.475Z,5.72
2023-04-20T01:34:14.454Z,5.76
2023-04-20T01:35:14.438Z,5.76
2023-04-20T01:36:14.423Z,5.76
2023-04-20T01:37:14.407Z,5.79
2023-04-20T01:38:14.409Z,5.78
2023-04-20T01:39:14.415Z,5.78
2023-04-20T01:40:14.387Z,5.76
2023-04-20T01:41:14.357Z,5.78
2023-04-20T01:42:14.350Z,5.78
2023-04-20T01:43:14.338Z,5.78
2023-04-20T01:44:14.373Z,5.78
2023-04-20T01:45:14.313Z,5.81
2023-04-20T01:46:14.342Z,5.81
2023-04-20T01:47:14.289Z,5.79
2023-04-20T01:48:14.286Z,5.81
2023-04-20T01:49:14.255Z,5.81
2023-04-20T01:50:14.247Z,5.79
2023-04-20T01:51:14.230Z,5.78
2023-04-20T01:52:14.226Z,5.78
2023-04-20T01:53:14.216Z,5.82
2023-04-20T01:54:14.195Z,5.79
2023-04-20T01:55:14.177Z,5.81
2023-04-20T01:56:14.169Z,5.81
2023-04-20T01:57:14.165Z,5.79
2023-04-20T01:58:14.157Z,5.81
2023-04-20T01:59:14.126Z,5.81
2023-04-20T02:00:14.128Z,5.81
2023-04-20T02:01:14.159Z,5.82
2023-04-20T02:02:14.157Z,5.81
2023-04-20T02:03:14.248Z,5.81
2023-04-20T02:04:14.119Z,5.82
2023-04-20T02:05:14.062Z,5.83
2023-04-20T02:06:14.040Z,5.82
2023-04-20T02:07:14.023Z,5.83
2023-04-20T02:08:14.034Z,5.85
2023-04-20T02:09:14.026Z,5.82
2023-04-20T02:10:13.987Z,5.85
2023-04-20T02:11:13.995Z,5.83
2023-04-20T02:12:13.961Z,5.82
2023-04-20T02:13:13.971Z,5.83
2023-04-20T02:14:13.933Z,5.83
2023-04-20T02:15:13.929Z,5.83
2023-04-20T02:16:13.906Z,5.83
2023-04-20T02:17:13.971Z,5.85
2023-04-20T02:18:13.888Z,5.82
2023-04-20T02:19:13.864Z,5.85
2023-04-20T02:20:13.856Z,5.83
2023-04-20T02:21:13.840Z,5.83
2023-04-20T02:22:13.831Z,5.85
2023-04-20T02:23:13.826Z,5.85
2023-04-20T02:24:13.808Z,5.85
2023-04-20T02:25:13.795Z,5.85
2023-04-20T02:26:13.770Z,5.85
2023-04-20T02:27:13.770Z,5.86
2023-04-20T02:28:13.757Z,5.89
2023-04-20T02:29:13.737Z,5.85
2023-04-20T02:30:13.721Z,5.83
2023-04-20T02:31:13.792Z,5.83
2023-04-20T02:32:13.695Z,5.85
2023-04-20T02:33:13.698Z,5.86
2023-04-20T02:34:13.662Z,5.85
2023-04-20T02:35:13.652Z,5.85
2023-04-20T02:36:14.893Z,5.89
2023-04-20T02:37:13.637Z,5.86
2023-04-20T02:38:13.635Z,5.89
2023-04-20T02:39:13.612Z,5.86
2023-04-20T02:40:13.586Z,5.89
2023-04-20T02:41:13.580Z,5.85
2023-04-20T02:42:13.571Z,5.86
2023-04-20T02:43:13.563Z,5.86
2023-04-20T02:44:13.548Z,5.89
2023-04-20T02:45:13.568Z,5.90
2023-04-20T02:46:13.566Z,5.90
2023-04-20T02:47:13.496Z,5.90
2023-04-20T02:48:13.497Z,5.90
2023-04-20T02:49:13.477Z,5.91
2023-04-20T02:50:13.464Z,5.91
2023-04-20T02:51:13.450Z,5.90
2023-04-20T02:52:13.436Z,5.93
2023-04-20T02:53:13.435Z,5.93
2023-04-20T02:54:13.410Z,5.91
2023-04-20T02:55:13.398Z,5.93
2023-04-20T02:56:13.401Z,5.93
2023-04-20T02:57:13.390Z,5.91
2023-04-20T02:58:13.372Z,5.93
2023-04-20T02:59:13.360Z,5.93
2023-04-20T03:00:13.348Z,5.91
2023-04-20T03:01:13.317Z,5.93
2023-04-20T03:02:13.447Z,5.93
2023-04-20T03:03:13.423Z,5.93
2023-04-20T03:04:13.380Z,5.96
2023-04-20T03:05:13.337Z,5.97
2023-04-20T03:06:13.256Z,5.96
2023-04-20T03:07:15.296Z,5.97
2023-04-20T03:08:13.230Z,5.99
2023-04-20T03:09:13.273Z,5.99
2023-04-20T03:10:13.215Z,5.97
2023-04-20T03:11:13.194Z,5.96
2023-04-20T03:12:13.178Z,5.97
2023-04-20T03:13:13.159Z,5.99
2023-04-20T03:14:13.155Z,5.99
2023-04-20T03:15:13.166Z,6.00
2023-04-20T03:16:13.167Z,5.99
2023-04-20T03:17:13.125Z,5.99
2023-04-20T03:18:13.104Z,6.00
2023-04-20T03:19:13.101Z,6.01
2023-04-20T03:20:13.114Z,6.01
2023-04-20T03:21:13.073Z,6.01
2023-04-20T03:22:13.059Z,6.01
2023-04-20T03:23:13.039Z,6.01
2023-04-20T03:24:13.038Z,6.03
2023-04-20T03:25:13.025Z,6.01
2023-04-20T03:26:12.993Z,5.97
2023-04-20T03:27:12.983Z,6.00
2023-04-20T03:28:12.956Z,5.97
2023-04-20T03:29:12.967Z,5.99
2023-04-20T03:30:12.940Z,6.00
2023-04-20T03:31:12.930Z,5.99
2023-04-20T03:32:13.071Z,6.00
2023-04-20T03:33:13.003Z,6.01
2023-04-20T03:34:12.895Z,6.01
2023-04-20T03:35:12.880Z,6.00
2023-04-20T03:36:12.854Z,6.01
2023-04-20T03:37:12.861Z,6.01
2023-04-20T03:38:12.829Z,6.01
2023-04-20T03:39:12.831Z,6.01
2023-04-20T03:40:12.805Z,6.00
2023-04-20T03:41:12.794Z,6.00
2023-04-20T03:42:12.779Z,5.99
2023-04-20T03:43:12.764Z,6.01
2023-04-20T03:44:12.766Z,6.03
2023-04-20T03:45:12.755Z,6.04
2023-04-20T03:46:12.793Z,6.03
2023-04-20T03:47:12.787Z,6.03
2023-04-20T03:48:12.703Z,6.04
2023-04-20T03:49:12.700Z,6.03
2023-04-20T03:50:12.716Z,6.04
2023-04-20T03:51:12.668Z,6.03
2023-04-20T03:52:12.641Z,6.01
2023-04-20T03:53:12.636Z,6.03
2023-04-20T03:54:12.633Z,6.03
2023-04-20T03:55:12.611Z,6.01
2023-04-20T03:56:12.766Z,6.03
2023-04-20T03:57:12.584Z,6.03
2023-04-20T03:58:12.566Z,6.04
2023-04-20T03:59:12.573Z,6.01
2023-04-20T04:00:12.575Z,6.04
2023-04-20T04:01:12.537Z,6.03
2023-04-20T04:02:12.566Z,6.08
2023-04-20T04:03:12.726Z,6.08
2023-04-20T04:04:12.770Z,6.06
2023-04-20T04:05:12.547Z,6.06
2023-04-20T04:06:12.467Z,6.06
2023-04-20T04:07:12.461Z,6.06
2023-04-20T04:08:12.442Z,6.06
2023-04-20T04:09:12.443Z,6.08
2023-04-20T04:10:12.410Z,6.09
2023-04-20T04:11:12.397Z,6.11
2023-04-20T04:12:12.418Z,6.12
2023-04-20T04:13:12.381Z,6.09
2023-04-20T04:14:12.379Z,6.09
2023-04-20T04:15:12.364Z,6.08
2023-04-20T04:16:12.337Z,6.09
2023-04-20T04:17:12.421Z,6.08
2023-04-20T04:18:12.326Z,6.06
2023-04-20T04:19:12.332Z,6.06
2023-04-20T04:20:12.285Z,6.06
2023-04-20T04:21:12.278Z,6.04
2023-04-20T04:22:12.256Z,6.04
2023-04-20T04:23:12.249Z,6.01
2023-04-20T04:24:12.243Z,6.01
2023-04-20T04:25:12.222Z,6.00
2023-04-20T04:26:12.203Z,6.00
2023-04-20T04:27:12.308Z,5.99
2023-04-20T04:28:12.188Z,5.97
2023-04-20T04:29:12.187Z,5.97
2023-04-20T04:30:12.162Z,5.97
2023-04-20T04:31:12.243Z,5.96
2023-04-20T04:32:12.133Z,5.96
2023-04-20T04:33:12.122Z,5.96
2023-04-20T04:34:12.119Z,5.96
2023-04-20T04:35:12.094Z,5.96
2023-04-20T04:36:12.078Z,5.94
2023-04-20T04:37:12.099Z,5.94
2023-04-20T04:38:12.048Z,5.93
2023-04-20T04:39:12.056Z,5.93
2023-04-20T04:40:12.028Z,5.90
2023-04-20T04:41:12.011Z,5.89
2023-04-20T04:42:12.006Z,5.85
2023-04-20T04:43:11.994Z,5.85
2023-04-20T04:44:12.092Z,5.82
2023-04-20T04:45:11.981Z,5.79
2023-04-20T04:46:12.007Z,5.79
2023-04-20T04:47:11.983Z,5.79
2023-04-20T04:48:12.182Z,5.79
2023-04-20T04:49:11.929Z,5.81
2023-04-20T04:50:11.897Z,5.82
2023-04-20T04:51:11.893Z,5.85
2023-04-20T04:52:11.871Z,5.83
2023-04-20T04:53:11.868Z,5.85
2023-04-20T04:54:11.856Z,5.89
2023-04-20T04:55:12.160Z,5.85
2023-04-20T04:56:11.823Z,5.89
2023-04-20T04:57:11.817Z,5.83
2023-04-20T04:58:11.820Z,5.83
2023-04-20T04:59:11.805Z,5.83
2023-04-20T05:00:11.773Z,5.85
2023-04-20T05:01:11.766Z,5.83
2023-04-20T05:02:11.832Z,5.85
2023-04-20T05:03:11.917Z,5.83
2023-04-20T05:04:11.911Z,5.79
2023-04-20T05:05:11.735Z,5.78
2023-04-20T05:06:11.695Z,5.78
2023-04-20T05:07:11.686Z,5.76
2023-04-20T05:08:11.682Z,5.78
2023-04-20T05:09:11.667Z,5.78
2023-04-20T05:10:12.727Z,5.82
2023-04-20T05:11:11.647Z,5.79
2023-04-20T05:12:11.619Z,5.79
2023-04-20T05:13:11.622Z,5.79
2023-04-20T05:14:11.781Z,5.72
2023-04-20T05:15:11.591Z,5.71
2023-04-20T05:16:11.629Z,5.68
2023-04-20T05:17:11.564Z,5.67
2023-04-20T05:18:11.526Z,5.67
2023-04-20T05:19:11.542Z,5.65
2023-04-20T05:20:11.513Z,5.64
2023-04-20T05:21:11.549Z,5.67
2023-04-20T05:22:11.657Z,5.68
2023-04-20T05:23:11.486Z,5.67
2023-04-20T05:24:11.482Z,5.68
2023-04-20T05:25:13.766Z,5.71
2023-04-20T05:26:11.430Z,5.74
2023-04-20T05:27:11.415Z,5.74
2023-04-20T05:28:11.411Z,5.99
2023-04-20T05:29:11.418Z,6.09
2023-04-20T05:30:20.335Z,6.09
2023-04-20T05:31:12.373Z,6.06
2023-04-20T05:32:11.418Z,6.01
2023-04-20T05:33:11.353Z,6.04
2023-04-20T05:34:11.343Z,6.03
2023-04-20T05:35:11.318Z,6.00
2023-04-20T05:36:11.330Z,6.00
2023-04-20T05:37:11.291Z,5.99
2023-04-20T05:38:11.275Z,6.00
2023-04-20T05:39:11.370Z,5.94
2023-04-20T05:40:11.251Z,5.96
2023-04-20T05:41:11.248Z,5.93
2023-04-20T05:42:11.224Z,5.96
2023-04-20T05:43:11.219Z,5.97
2023-04-20T05:44:11.217Z,5.97
2023-04-20T05:45:11.197Z,5.97
2023-04-20T05:46:11.213Z,6.06
2023-04-20T05:47:11.181Z,6.11
2023-04-20T05:48:11.144Z,6.12
2023-04-20T05:49:11.147Z,6.18
2023-04-20T05:50:11.133Z,6.15
2023-04-20T05:51:11.108Z,6.15
2023-04-20T05:52:11.098Z,6.15
2023-04-20T05:53:11.091Z,6.15
2023-04-20T05:54:11.077Z,6.11
2023-04-20T05:55:11.058Z,6.09
2023-04-20T05:56:11.042Z,6.06
2023-04-20T05:57:11.032Z,6.09
2023-04-20T05:58:11.019Z,6.15
2023-04-20T05:59:11.015Z,6.14
2023-04-20T06:00:11.019Z,6.18
2023-04-20T06:01:11.056Z,6.27
2023-04-20T06:02:11.077Z,6.33
2023-04-20T06:03:11.194Z,6.36
2023-04-20T06:04:11.246Z,6.36
2023-04-20T06:05:11.401Z,6.44
2023-04-20T06:06:10.922Z,6.48
2023-04-20T06:07:10.920Z,6.48
2023-04-20T06:08:10.903Z,6.46
2023-04-20T06:09:10.911Z,6.48
2023-04-20T06:10:10.902Z,6.52
2023-04-20T06:11:10.877Z,6.56
2023-04-20T06:12:10.877Z,6.58
2023-04-20T06:13:10.874Z,6.64
2023-04-20T06:14:10.834Z,6.66
2023-04-20T06:15:10.962Z,6.67
2023-04-20T06:16:10.992Z,6.77
2023-04-20T06:17:10.784Z,6.76
2023-04-20T06:18:10.839Z,6.94
2023-04-20T06:19:10.781Z,7.17
2023-04-20T06:20:10.849Z,7.20
2023-04-20T06:21:10.722Z,7.67
2023-04-20T06:22:10.718Z,7.58
2023-04-20T06:23:10.702Z,7.49
2023-04-20T06:24:10.693Z,7.40
2023-04-20T06:25:10.711Z,7.30
2023-04-20T06:26:19.299Z,7.28
2023-04-20T06:27:10.656Z,7.27
2023-04-20T06:28:10.703Z,7.25
2023-04-20T06:29:10.962Z,7.32
2023-04-20T06:30:10.809Z,7.39
2023-04-20T06:31:10.665Z,7.35
2023-04-20T06:32:10.674Z,7.37
2023-04-20T06:33:18.097Z,7.30
2023-04-20T06:34:10.563Z,7.25
2023-04-20T06:35:10.557Z,7.20
2023-04-20T06:36:10.532Z,7.05
2023-04-20T06:37:10.508Z,7.05
2023-04-20T06:38:10.522Z,6.94
2023-04-20T06:39:10.496Z,7.03
2023-04-20T06:40:10.499Z,7.06
2023-04-20T06:41:10.463Z,7.09
2023-04-20T06:42:10.465Z,7.16
2023-04-20T06:43:10.445Z,7.16
2023-04-20T06:44:10.419Z,7.27
2023-04-20T06:45:10.401Z,7.30
2023-04-20T06:46:10.443Z,7.24
2023-04-20T06:47:10.419Z,7.24
2023-04-20T06:48:23.896Z,7.23
2023-04-20T06:49:11.352Z,7.30
2023-04-20T06:50:10.386Z,7.31
2023-04-20T06:51:10.335Z,7.28
2023-04-20T06:52:10.331Z,7.17
2023-04-20T06:53:10.298Z,7.15
2023-04-20T06:54:10.306Z,7.15
2023-04-20T06:55:10.262Z,7.13
2023-04-20T06:56:10.264Z,7.15
2023-04-20T06:57:10.234Z,7.16
2023-04-20T06:58:10.239Z,7.15
2023-04-20T06:59:10.236Z,7.13
2023-04-20T07:00:10.220Z,7.13
2023-04-20T07:01:10.229Z,7.25
2023-04-20T07:02:10.336Z,7.30
2023-04-20T07:03:10.248Z,7.30
2023-04-20T07:04:10.202Z,7.31
2023-04-20T07:05:10.135Z,7.31
2023-04-20T07:06:10.156Z,7.27
2023-04-20T07:07:10.115Z,7.28
2023-04-20T07:08:10.109Z,7.31
2023-04-20T07:09:10.097Z,7.34
2023-04-20T07:10:10.079Z,7.39
2023-04-20T07:11:10.078Z,7.40
2023-04-20T07:12:10.083Z,7.49
2023-04-20T07:13:10.036Z,7.53
2023-04-20T07:14:10.030Z,7.58
2023-04-20T07:15:10.035Z,7.61
2023-04-20T07:16:10.080Z,7.67
2023-04-20T07:17:09.987Z,7.64
2023-04-20T07:18:09.985Z,7.67
2023-04-20T07:19:09.998Z,7.82
2023-04-20T07:20:09.950Z,7.92
2023-04-20T07:21:09.939Z,8.37
2023-04-20T07:22:09.920Z,8.71
2023-04-20T07:23:09.894Z,8.71
2023-04-20T07:24:09.927Z,9.50
2023-04-20T07:25:09.898Z,9.43
2023-04-20T07:26:09.867Z,8.92
2023-04-20T07:27:09.846Z,8.71
2023-04-20T07:28:09.838Z,8.48
2023-04-20T07:29:09.840Z,8.40
2023-04-20T07:30:09.822Z,8.38
2023-04-20T07:31:09.798Z,8.28
2023-04-20T07:32:09.856Z,8.33
2023-04-20T07:33:09.803Z,8.29
2023-04-20T07:34:09.779Z,8.22
2023-04-20T07:35:09.761Z,8.23
2023-04-20T07:36:09.726Z,8.18
2023-04-20T07:37:09.710Z,8.10
2023-04-20T07:38:09.728Z,8.12
2023-04-20T07:39:09.741Z,8.18
2023-04-20T07:40:09.708Z,8.18
2023-04-20T07:41:09.738Z,8.07
2023-04-20T07:42:09.691Z,8.00
2023-04-20T07:43:09.824Z,7.98
2023-04-20T07:44:09.667Z,7.98
2023-04-20T07:45:09.662Z,8.07
2023-04-20T07:46:09.613Z,8.20
2023-04-20T07:47:09.596Z,8.23
2023-04-20T07:48:09.769Z,8.43
2023-04-20T07:49:09.566Z,8.50
2023-04-20T07:50:09.553Z,8.55
2023-04-20T07:51:09.538Z,8.65
2023-04-20T07:52:15.637Z,8.61
2023-04-20T07:53:10.511Z,8.59
2023-04-20T07:54:09.492Z,8.62
2023-04-20T07:55:09.494Z,8.52
2023-04-20T07:56:09.479Z,8.45
2023-04-20T07:57:09.461Z,8.47
2023-04-20T07:58:09.466Z,8.55
2023-04-20T07:59:09.436Z,8.61
2023-04-20T08:00:09.431Z,8.52
2023-04-20T08:01:09.664Z,8.52
2023-04-20T08:02:09.520Z,8.47
2023-04-20T08:03:09.746Z,8.55
2023-04-20T08:04:09.580Z,8.55
2023-04-20T08:05:09.498Z,8.68
2023-04-20T08:06:09.345Z,8.76
2023-04-20T08:07:09.320Z,8.74
2023-04-20T08:08:09.328Z,8.84
2023-04-20T08:09:10.376Z,8.83
2023-04-20T08:10:09.332Z,8.89
2023-04-20T08:11:09.273Z,8.94
2023-04-20T08:12:09.286Z,8.92
2023-04-20T08:13:09.244Z,8.83
2023-04-20T08:14:09.352Z,8.74
2023-04-20T08:15:09.268Z,8.68
2023-04-20T08:16:09.260Z,8.68
2023-04-20T08:17:09.207Z,8.63
2023-04-20T08:18:09.248Z,8.63
2023-04-20T08:19:09.182Z,8.59
2023-04-20T08:20:09.196Z,8.65
2023-04-20T08:21:09.188Z,8.62
2023-04-20T08:22:09.141Z,8.70
2023-04-20T08:23:09.131Z,8.83
2023-04-20T08:24:09.094Z,8.98
2023-04-20T08:25:09.094Z,9.10
2023-04-20T08:26:09.073Z,9.26
2023-04-20T08:27:09.065Z,9.28
2023-04-20T08:28:12.182Z,9.20
2023-04-20T08:29:10.043Z,9.20
2023-04-20T08:30:09.027Z,9.28
2023-04-20T08:31:09.024Z,9.43
2023-04-20T08:32:08.998Z,9.58
2023-04-20T08:33:09.034Z,9.61
2023-04-20T08:34:08.964Z,9.66
2023-04-20T08:35:09.006Z,9.69
2023-04-20T08:36:08.953Z,9.79
2023-04-20T08:37:08.907Z,9.84
2023-04-20T08:38:08.986Z,9.79
2023-04-20T08:39:08.894Z,9.86
2023-04-20T08:40:08.893Z,9.86
2023-04-20T08:41:08.864Z,9.84
2023-04-20T08:42:08.869Z,9.93
2023-04-20T08:43:08.842Z,9.93
2023-04-20T08:44:08.825Z,9.91
2023-04-20T08:45:08.829Z,10.02
2023-04-20T08:46:08.870Z,10.05
2023-04-20T08:47:08.858Z,10.09
2023-04-20T08:48:08.790Z,10.32
2023-04-20T08:49:08.755Z,10.42
2023-04-20T08:50:08.822Z,10.52
2023-04-20T08:51:08.747Z,10.42
2023-04-20T08:52:09.158Z,10.47
2023-04-20T08:53:08.704Z,10.33
2023-04-20T08:54:08.715Z,10.22
2023-04-20T08:55:08.688Z,10.04
2023-04-20T08:56:08.664Z,9.81
2023-04-20T08:57:08.657Z,9.66
2023-04-20T08:58:08.638Z,9.68
2023-04-20T08:59:08.618Z,9.74
2023-04-20T09:00:08.618Z,9.89
2023-04-20T09:01:08.639Z,9.96
2023-04-20T09:02:08.724Z,10.05
2023-04-20T09:03:08.790Z,10.08
2023-04-20T09:04:08.754Z,10.18
2023-04-20T09:05:08.615Z,10.18
2023-04-20T09:06:08.526Z,10.23
2023-04-20T09:07:08.504Z,10.15
2023-04-20T09:08:08.516Z,10.09
2023-04-20T09:09:08.480Z,10.15
2023-04-20T09:10:08.478Z,10.12
2023-04-20T09:11:08.529Z,10.09
2023-04-20T09:12:08.440Z,9.99
2023-04-20T09:13:08.427Z,10.02
2023-04-20T09:14:08.409Z,10.14
2023-04-20T09:15:08.412Z,10.26
2023-04-20T09:16:08.398Z,10.32
2023-04-20T09:17:08.371Z,10.33
2023-04-20T09:18:08.456Z,10.30
2023-04-20T09:19:09.375Z,10.27
2023-04-20T09:20:08.377Z,10.34
2023-04-20T09:21:08.332Z,10.36
2023-04-20T09:22:08.306Z,10.30
2023-04-20T09:23:08.283Z,10.27
2023-04-20T09:24:08.300Z,10.30
2023-04-20T09:25:08.272Z,10.40
2023-04-20T09:26:08.254Z,10.47
2023-04-20T09:27:08.225Z,10.36
2023-04-20T09:28:08.232Z,10.55
2023-04-20T09:29:08.204Z,10.94
2023-04-20T09:30:08.214Z,11.27
2023-04-20T09:31:08.177Z,11.44
2023-04-20T09:32:08.229Z,11.64
2023-04-20T09:33:08.275Z,11.78
2023-04-20T09:34:08.150Z,11.78
2023-04-20T09:35:08.134Z,11.69
2023-04-20T09:36:08.118Z,11.44
2023-04-20T09:37:08.103Z,11.10
2023-04-20T09:38:08.099Z,11.02
2023-04-20T09:39:08.079Z,10.97
2023-04-20T09:40:08.076Z,10.84
2023-04-20T09:41:08.036Z,10.82
2023-04-20T09:42:08.189Z,10.74
2023-04-20T09:43:08.024Z,10.78
2023-04-20T09:44:08.024Z,10.76
2023-04-20T09:45:08.020Z,10.82
2023-04-20T09:46:08.095Z,10.81
2023-04-20T09:47:07.970Z,10.76
2023-04-20T09:48:08.024Z,10.64
2023-04-20T09:49:07.957Z,10.55
2023-04-20T09:50:22.718Z,10.53
2023-04-20T09:51:08.916Z,10.76
2023-04-20T09:52:07.908Z,11.18
2023-04-20T09:53:07.893Z,11.29
2023-04-20T09:54:07.888Z,11.32
2023-04-20T09:55:07.872Z,11.27
2023-04-20T09:56:07.856Z,11.14
2023-04-20T09:57:07.832Z,11.06
2023-04-20T09:58:07.828Z,11.00
2023-04-20T09:59:07.825Z,10.81
2023-04-20T10:00:07.815Z,10.68
2023-04-20T10:01:07.856Z,10.61
2023-04-20T10:02:07.848Z,10.64
2023-04-20T10:03:07.930Z,10.60
2023-04-20T10:04:08.026Z,10.51
2023-04-20T10:05:07.775Z,10.36
2023-04-20T10:06:07.728Z,10.18
2023-04-20T10:07:07.702Z,10.11
2023-04-20T10:08:07.707Z,10.23
2023-04-20T10:09:07.795Z,10.27
2023-04-20T10:10:07.678Z,10.36
2023-04-20T10:11:07.668Z,10.64
2023-04-20T10:12:07.646Z,10.79
2023-04-20T10:13:07.631Z,11.17
2023-04-20T10:14:07.632Z,11.46
2023-04-20T10:15:07.636Z,11.27
2023-04-20T10:16:07.605Z,11.25
2023-04-20T10:17:07.772Z,11.47
2023-04-20T10:18:07.728Z,11.49
2023-04-20T10:19:09.083Z,11.88
2023-04-20T10:20:07.543Z,11.88
2023-04-20T10:21:07.522Z,11.65
2023-04-20T10:22:07.534Z,11.70
2023-04-20T10:23:07.496Z,11.96
2023-04-20T10:24:07.498Z,11.96
2023-04-20T10:25:07.531Z,11.67
2023-04-20T10:26:07.564Z,11.25
2023-04-20T10:27:07.447Z,11.00
2023-04-20T10:28:07.440Z,11.14
2023-04-20T10:29:07.424Z,11.09
2023-04-20T10:30:07.413Z,11.09
2023-04-20T10:31:07.448Z,10.82
2023-04-20T10:32:07.382Z,10.67
2023-04-20T10:33:07.415Z,10.67
2023-04-20T10:34:07.352Z,10.68
2023-04-20T10:35:07.369Z,11.37
2023-04-20T10:36:07.319Z,11.37
2023-04-20T10:37:07.309Z,11.37
2023-04-20T10:38:07.298Z,11.44
2023-04-20T10:39:07.292Z,11.76
2023-04-20T10:40:08.129Z,11.76
2023-04-20T10:41:07.273Z,11.60
2023-04-20T10:42:07.263Z,11.60
2023-04-20T10:43:07.249Z,11.57
2023-04-20T10:44:07.216Z,11.72
2023-04-20T10:45:07.224Z,11.79
2023-04-20T10:46:07.270Z,11.79
2023-04-20T10:47:07.181Z,12.53
2023-04-20T10:48:07.277Z,12.65
2023-04-20T10:49:07.212Z,12.95
2023-04-20T10:50:07.178Z,13.26
2023-04-20T10:51:07.119Z,13.04
2023-04-20T10:52:07.119Z,13.07
2023-04-20T10:53:07.109Z,13.05
2023-04-20T10:54:07.104Z,12.75
2023-04-20T10:55:07.124Z,12.56
2023-04-20T10:56:07.081Z,12.35
2023-04-20T10:57:07.050Z,12.37
2023-04-20T10:58:07.036Z,12.32
2023-04-20T10:59:07.043Z,12.35
2023-04-20T11:00:07.023Z,12.67
2023-04-20T11:01:06.999Z,12.90
2023-04-20T11:02:07.056Z,13.04
2023-04-20T11:03:07.127Z,13.29
2023-04-20T11:04:07.057Z,13.46
2023-04-20T11:05:06.999Z,13.52
2023-04-20T11:06:06.921Z,13.36
2023-04-20T11:07:06.923Z,13.08
2023-04-20T11:08:06.909Z,13.10
2023-04-20T11:09:06.895Z,13.03
2023-04-20T11:10:06.881Z,12.92
2023-04-20T11:11:06.936Z,12.97
2023-04-20T11:12:06.855Z,13.00
2023-04-20T11:13:06.859Z,13.07
2023-04-20T11:14:06.827Z,13.33
2023-04-20T11:15:06.840Z,13.57
2023-04-20T11:16:06.824Z,13.70
2023-04-20T11:17:06.840Z,13.54
2023-04-20T11:18:06.876Z,13.46
2023-04-20T11:19:06.763Z,13.45
2023-04-20T11:20:06.750Z,13.75
2023-04-20T11:21:06.746Z,13.77
2023-04-20T11:22:06.828Z,14.25
2023-04-20T11:23:06.753Z,14.68
2023-04-20T11:24:06.690Z,15.01
2023-04-20T11:25:06.682Z,15.06
2023-04-20T11:26:06.763Z,14.72
2023-04-20T11:27:06.647Z,14.45
2023-04-20T11:28:06.628Z,14.12
2023-04-20T11:29:06.623Z,13.92
2023-04-20T11:30:06.635Z,13.91
2023-04-20T11:31:06.623Z,13.78
2023-04-20T11:32:06.757Z,13.79
2023-04-20T11:33:06.692Z,13.79
2023-04-20T11:34:07.192Z,14.40
2023-04-20T11:35:07.355Z,14.29
2023-04-20T11:36:06.555Z,14.29
2023-04-20T11:37:06.578Z,13.51
2023-04-20T11:38:06.509Z,13.44
2023-04-20T11:39:06.506Z,13.45
2023-04-20T11:40:06.481Z,13.59
2023-04-20T11:41:06.468Z,13.91
2023-04-20T11:42:06.485Z,13.64
2023-04-20T11:43:06.454Z,13.67
2023-04-20T11:44:06.413Z,13.07
2023-04-20T11:45:06.425Z,12.79
2023-04-20T11:46:06.419Z,12.77
2023-04-20T11:47:06.424Z,12.70
2023-04-20T11:48:06.456Z,12.68
2023-04-20T11:49:06.383Z,12.68
2023-04-20T11:50:06.356Z,12.64
2023-04-20T11:51:06.336Z,12.53
2023-04-20T11:52:06.361Z,12.57
2023-04-20T11:53:06.316Z,12.59
2023-04-20T11:54:06.360Z,12.60
2023-04-20T11:55:06.313Z,12.75
2023-04-20T11:56:06.308Z,13.01
2023-04-20T11:57:06.267Z,13.29
2023-04-20T11:58:06.233Z,13.30
2023-04-20T11:59:06.224Z,13.32
2023-04-20T12:00:06.228Z,13.33
2023-04-20T12:01:06.206Z,13.45
2023-04-20T12:02:06.252Z,13.52
2023-04-20T12:03:06.378Z,13.45
2023-04-20T12:04:06.453Z,13.29
2023-04-20T12:05:06.328Z,13.29
2023-04-20T12:06:06.124Z,13.05
2023-04-20T12:07:06.112Z,13.11
2023-04-20T12:08:06.113Z,12.78
2023-04-20T12:09:06.105Z,12.82
2023-04-20T12:10:06.143Z,12.82
2023-04-20T12:11:06.073Z,12.95
2023-04-20T12:12:06.067Z,12.78
2023-04-20T12:13:06.032Z,12.70
2023-04-20T12:14:06.024Z,12.70
2023-04-20T12:15:06.028Z,12.67
2023-04-20T12:16:06.057Z,12.65
2023-04-20T12:17:05.990Z,12.56
2023-04-20T12:18:06.056Z,12.60
2023-04-20T12:19:06.003Z,12.72
2023-04-20T12:20:05.991Z,12.75
2023-04-20T12:21:05.942Z,12.67
2023-04-20T12:22:05.924Z,12.59
2023-04-20T12:23:05.901Z,12.56
2023-04-20T12:24:05.891Z,12.49
2023-04-20T12:25:05.887Z,12.45
2023-04-20T12:26:05.861Z,12.45
2023-04-20T12:27:05.871Z,12.47
2023-04-20T12:28:05.829Z,12.54
2023-04-20T12:29:05.839Z,12.52
2023-04-20T12:30:05.838Z,12.39
2023-04-20T12:31:05.861Z,12.39
2023-04-20T12:32:05.795Z,12.29
2023-04-20T12:33:05.813Z,12.24
2023-04-20T12:34:05.769Z,12.20
2023-04-20T12:35:05.805Z,12.21
2023-04-20T12:36:05.764Z,12.17
2023-04-20T12:37:05.727Z,12.13
2023-04-20T12:38:05.733Z,12.04
2023-04-20T12:39:05.724Z,12.05
2023-04-20T12:40:05.701Z,11.98
2023-04-20T12:41:05.658Z,11.96
2023-04-20T12:42:05.638Z,11.94
2023-04-20T12:43:05.646Z,11.80
2023-04-20T12:44:07.577Z,11.80
2023-04-20T12:45:05.625Z,11.80
2023-04-20T12:46:05.623Z,11.79
2023-04-20T12:47:05.707Z,11.78
2023-04-20T12:48:05.608Z,11.72
2023-04-20T12:49:05.582Z,11.72
2023-04-20T12:50:05.564Z,11.64
2023-04-20T12:51:05.525Z,11.57
2023-04-20T12:52:07.544Z,11.57
2023-04-20T12:53:05.505Z,11.57
2023-04-20T12:54:05.495Z,11.58
2023-04-20T12:55:05.499Z,11.57
2023-04-20T12:56:05.453Z,11.57
2023-04-20T12:57:05.455Z,11.52
2023-04-20T12:58:05.453Z,11.49
2023-04-20T12:59:05.419Z,11.43
2023-04-20T13:00:05.464Z,11.43
2023-04-20T13:01:05.406Z,11.46
2023-04-20T13:02:05.465Z,11.37
2023-04-20T13:03:05.485Z,11.33
2023-04-20T13:04:05.570Z,11.32
2023-04-20T13:05:05.367Z,11.29
2023-04-20T13:06:05.337Z,11.28
2023-04-20T13:07:05.330Z,11.27
2023-04-20T13:08:05.293Z,11.25
2023-04-20T13:09:05.285Z,11.21